sensor_id;sensor_type;location;lat;lon;timestamp;pressure;altitude;pressure_sealevel;temperature;humidity
36190;BME280;22232;50.914;13.858;2023-11-21T00:00:08;97083.13;;;7.52;100.00
36190;BME280;22232;50.914;13.858;2023-11-21T00:02:41;97079.28;;;7.48;100.00
36190;BME280;22232;50.914;13.858;2023-11-21T00:05:10;97077.56;;;7.53;100.00
36190;BME280;22232;50.914;13.858;2023-11-21T00:07:38;97086.00;;;7.50;100.00
36190;BME280;22232;50.914;13.858;2023-11-21T00:10:07;97088.06;;;7.48;100.00
36190;BME280;22232;50.914;13.858;2023-11-21T00:12:38;97080.69;;;7.50;100.00
36190;BME280;22232;50.914;13.858;2023-11-21T00:15:09;97079.63;;;7.51;100.00
36190;BME280;22232;50.914;13.858;2023-11-21T00:17:40;97093.16;;;7.50;100.00
36190;BME280;22232;50.914;13.858;2023-11-21T00:20:08;97089.22;;;7.41;100.00
36190;BME280;22232;50.914;13.858;2023-11-21T00:22:40;97084.84;;;7.46;100.00
36190;BME280;22232;50.914;13.858;2023-11-21T00:25:08;97083.19;;;7.45;100.00
36190;BME280;22232;50.914;13.858;2023-11-21T00:27:36;97088.75;;;7.44;100.00
36190;BME280;22232;50.914;13.858;2023-11-21T00:30:04;97084.50;;;7.43;100.00
36190;BME280;22232;50.914;13.858;2023-11-21T00:32:34;97086.31;;;7.42;100.00
36190;BME280;22232;50.914;13.858;2023-11-21T00:35:03;97089.22;;;7.41;100.00
36190;BME280;22232;50.914;13.858;2023-11-21T00:37:31;97095.88;;;7.31;100.00
36190;BME280;22232;50.914;13.858;2023-11-21T00:39:59;97092.88;;;7.28;100.00
36190;BME280;22232;50.914;13.858;2023-11-21T00:42:28;97092.97;;;7.33;100.00
36190;BME280;22232;50.914;13.858;2023-11-21T00:44:55;97091.38;;;7.32;100.00
36190;BME280;22232;50.914;13.858;2023-11-21T00:47:23;97088.72;;;7.32;100.00
36190;BME280;22232;50.914;13.858;2023-11-21T00:49:51;97101.63;;;7.28;100.00
36190;BME280;22232;50.914;13.858;2023-11-21T00:52:18;97106.34;;;7.26;100.00
36190;BME280;22232;50.914;13.858;2023-11-21T00:54:46;97097.72;;;7.31;100.00
36190;BME280;22232;50.914;13.858;2023-11-21T00:57:15;97109.13;;;7.31;100.00
36190;BME280;22232;50.914;13.858;2023-11-21T00:59:43;97111.00;;;7.31;100.00
36190;BME280;22232;50.914;13.858;2023-11-21T01:02:10;97111.78;;;7.31;100.00
36190;BME280;22232;50.914;13.858;2023-11-21T01:04:38;97109.34;;;7.30;100.00
36190;BME280;22232;50.914;13.858;2023-11-21T01:07:06;97111.00;;;7.31;100.00
36190;BME280;22232;50.914;13.858;2023-11-21T01:09:33;97118.69;;;7.32;100.00
36190;BME280;22232;50.914;13.858;2023-11-21T01:12:01;97116.06;;;7.32;100.00
36190;BME280;22232;50.914;13.858;2023-11-21T01:14:28;97121.81;;;7.29;100.00
36190;BME280;22232;50.914;13.858;2023-11-21T01:16:57;97124.47;;;7.29;100.00
36190;BME280;22232;50.914;13.858;2023-11-21T01:19:25;97124.47;;;7.29;100.00
36190;BME280;22232;50.914;13.858;2023-11-21T01:21:53;97129.56;;;7.31;100.00
36190;BME280;22232;50.914;13.858;2023-11-21T01:24:20;97119.50;;;7.33;100.00
36190;BME280;22232;50.914;13.858;2023-11-21T01:26:48;97128.66;;;7.37;100.00
36190;BME280;22232;50.914;13.858;2023-11-21T01:29:15;97123.91;;;7.39;100.00
36190;BME280;22232;50.914;13.858;2023-11-21T01:31:43;97126.66;;;7.32;100.00
36190;BME280;22232;50.914;13.858;2023-11-21T01:34:11;97125.19;;;7.37;100.00
36190;BME280;22232;50.914;13.858;2023-11-21T01:36:38;97125.41;;;7.35;100.00
36190;BME280;22232;50.914;13.858;2023-11-21T01:39:06;97128.50;;;7.32;100.00
36190;BME280;22232;50.914;13.858;2023-11-21T01:41:36;97126.66;;;7.32;100.00
36190;BME280;22232;50.914;13.858;2023-11-21T01:44:04;97128.50;;;7.32;100.00
36190;BME280;22232;50.914;13.858;2023-11-21T01:46:35;97124.72;;;7.28;100.00
36190;BME280;22232;50.914;13.858;2023-11-21T01:49:04;97113.38;;;7.21;100.00
36190;BME280;22232;50.914;13.858;2023-11-21T01:51:31;97119.72;;;7.20;100.00
36190;BME280;22232;50.914;13.858;2023-11-21T01:53:59;97119.56;;;7.15;100.00
36190;BME280;22232;50.914;13.858;2023-11-21T01:56:26;97125.91;;;7.13;100.00
36190;BME280;22232;50.914;13.858;2023-11-21T01:58:54;97123.47;;;7.12;100.00
36190;BME280;22232;50.914;13.858;2023-11-21T02:01:22;97125.78;;;7.08;100.00
36190;BME280;22232;50.914;13.858;2023-11-21T02:03:50;97123.47;;;7.12;100.00
36190;BME280;22232;50.914;13.858;2023-11-21T02:06:18;97122.47;;;7.13;100.00
36190;BME280;22232;50.914;13.858;2023-11-21T02:08:46;97127.75;;;7.13;100.00
36190;BME280;22232;50.914;13.858;2023-11-21T02:11:13;97126.28;;;7.17;100.00
36190;BME280;22232;50.914;13.858;2023-11-21T02:13:41;97123.25;;;7.13;100.00
36190;BME280;22232;50.914;13.858;2023-11-21T02:16:14;97125.31;;;7.11;100.00
36190;BME280;22232;50.914;13.858;2023-11-21T02:18:42;97123.56;;;7.05;100.00
36190;BME280;22232;50.914;13.858;2023-11-21T02:21:10;97123.00;;;7.03;100.00
36190;BME280;22232;50.914;13.858;2023-11-21T02:23:37;97117.25;;;7.06;100.00
36190;BME280;22232;50.914;13.858;2023-11-21T02:26:10;97117.25;;;7.06;100.00
36190;BME280;22232;50.914;13.858;2023-11-21T02:28:38;97120.34;;;7.03;100.00
36190;BME280;22232;50.914;13.858;2023-11-21T02:31:06;97120.34;;;7.03;100.00
36190;BME280;22232;50.914;13.858;2023-11-21T02:33:35;97124.91;;;6.96;100.00
36190;BME280;22232;50.914;13.858;2023-11-21T02:36:03;97129.22;;;6.97;100.00
36190;BME280;22232;50.914;13.858;2023-11-21T02:38:30;97132.66;;;6.98;100.00
36190;BME280;22232;50.914;13.858;2023-11-21T02:40:58;97130.38;;;7.01;100.00
36190;BME280;22232;50.914;13.858;2023-11-21T02:43:28;97129.22;;;6.97;100.00
36190;BME280;22232;50.914;13.858;2023-11-21T02:45:57;97126.56;;;6.97;100.00
36190;BME280;22232;50.914;13.858;2023-11-21T02:48:24;97125.38;;;6.93;100.00
36190;BME280;22232;50.914;13.858;2023-11-21T02:50:53;97135.97;;;6.93;100.00
36190;BME280;22232;50.914;13.858;2023-11-21T02:53:20;97131.25;;;6.95;100.00
36190;BME280;22232;50.914;13.858;2023-11-21T02:55:48;97131.25;;;6.95;100.00
36190;BME280;22232;50.914;13.858;2023-11-21T02:58:15;97139.56;;;6.99;100.00
36190;BME280;22232;50.914;13.858;2023-11-21T03:00:43;97131.84;;;6.97;100.00
36190;BME280;22232;50.914;13.858;2023-11-21T03:03:11;97135.88;;;7.00;100.00
36190;BME280;22232;50.914;13.858;2023-11-21T03:05:39;97141.19;;;7.00;100.00
36190;BME280;22232;50.914;13.858;2023-11-21T03:08:07;97135.06;;;6.99;100.00
36190;BME280;22232;50.914;13.858;2023-11-21T03:10:34;97134.28;;;6.99;100.00
36190;BME280;22232;50.914;13.858;2023-11-21T03:13:02;97136.91;;;6.99;100.00
36190;BME280;22232;50.914;13.858;2023-11-21T03:15:31;97136.25;;;7.03;100.00
36190;BME280;22232;50.914;13.858;2023-11-21T03:18:00;97138.53;;;7.00;100.00
36190;BME280;22232;50.914;13.858;2023-11-21T03:20:28;97143.84;;;7.00;100.00
36190;BME280;22232;50.914;13.858;2023-11-21T03:22:56;97142.00;;;7.00;100.00
36190;BME280;22232;50.914;13.858;2023-11-21T03:25:24;97145.91;;;6.98;100.00
36190;BME280;22232;50.914;13.858;2023-11-21T03:27:52;97144.88;;;6.99;100.00
36190;BME280;22232;50.914;13.858;2023-11-21T03:30:20;97138.31;;;7.01;100.00
36190;BME280;22232;50.914;13.858;2023-11-21T03:32:48;97147.31;;;7.00;100.00
36190;BME280;22232;50.914;13.858;2023-11-21T03:35:16;97144.06;;;6.98;100.00
36190;BME280;22232;50.914;13.858;2023-11-21T03:37:44;97145.31;;;6.96;100.00
36190;BME280;22232;50.914;13.858;2023-11-21T03:40:11;97156.38;;;6.93;100.00
36190;BME280;22232;50.914;13.858;2023-11-21T03:42:40;97153.50;;;6.94;100.00
36190;BME280;22232;50.914;13.858;2023-11-21T03:45:09;97146.56;;;6.93;100.00
36190;BME280;22232;50.914;13.858;2023-11-21T03:47:36;97156.72;;;6.96;100.00
36190;BME280;22232;50.914;13.858;2023-11-21T03:50:04;97163.53;;;6.92;100.00
36190;BME280;22232;50.914;13.858;2023-11-21T03:52:32;97159.13;;;6.86;100.00
36190;BME280;22232;50.914;13.858;2023-11-21T03:55:02;97161.50;;;6.76;100.00
36190;BME280;22232;50.914;13.858;2023-11-21T03:57:30;97160.28;;;6.72;100.00
36190;BME280;22232;50.914;13.858;2023-11-21T03:59:57;97167.06;;;6.68;100.00
36190;BME280;22232;50.914;13.858;2023-11-21T04:02:25;97167.22;;;6.54;100.00
36190;BME280;22232;50.914;13.858;2023-11-21T04:04:53;97170.09;;;6.53;100.00
36190;BME280;22232;50.914;13.858;2023-11-21T04:07:21;97174.34;;;6.54;100.00
36190;BME280;22232;50.914;13.858;2023-11-21T04:09:49;97167.66;;;6.51;100.00
36190;BME280;22232;50.914;13.858;2023-11-21T04:12:16;97160.97;;;6.49;100.00
36190;BME280;22232;50.914;13.858;2023-11-21T04:14:44;97169.34;;;6.46;100.00
36190;BME280;22232;50.914;13.858;2023-11-21T04:17:12;97174.41;;;6.47;100.00
36190;BME280;22232;50.914;13.858;2023-11-21T04:19:39;97171.34;;;6.50;100.00
36190;BME280;22232;50.914;13.858;2023-11-21T04:22:07;97178.25;;;6.51;100.00
36190;BME280;22232;50.914;13.858;2023-11-21T04:24:34;97179.28;;;6.50;100.00
36190;BME280;22232;50.914;13.858;2023-11-21T04:27:02;97182.09;;;6.55;100.00
36190;BME280;22232;50.914;13.858;2023-11-21T04:29:30;97183.13;;;6.54;100.00
36190;BME280;22232;50.914;13.858;2023-11-21T04:31:57;97186.94;;;6.58;100.00
36190;BME280;22232;50.914;13.858;2023-11-21T04:34:25;97184.31;;;6.58;100.00
36190;BME280;22232;50.914;13.858;2023-11-21T04:36:52;97184.75;;;6.55;100.00
36190;BME280;22232;50.914;13.858;2023-11-21T04:39:20;97188.78;;;6.58;100.00
36190;BME280;22232;50.914;13.858;2023-11-21T04:41:48;97194.53;;;6.55;100.00
36190;BME280;22232;50.914;13.858;2023-11-21T04:44:15;97185.47;;;6.62;100.00
36190;BME280;22232;50.914;13.858;2023-11-21T04:46:44;97191.66;;;6.56;100.00
36190;BME280;22232;50.914;13.858;2023-11-21T04:49:12;97188.56;;;6.59;100.00
36190;BME280;22232;50.914;13.858;2023-11-21T04:51:39;97190.69;;;6.51;100.00
36190;BME280;22232;50.914;13.858;2023-11-21T04:54:07;97197.03;;;6.50;100.00
36190;BME280;22232;50.914;13.858;2023-11-21T04:56:34;97198.09;;;6.42;100.00
36190;BME280;22232;50.914;13.858;2023-11-21T04:59:02;97200.19;;;6.40;100.00
36190;BME280;22232;50.914;13.858;2023-11-21T05:01:30;97194.66;;;6.41;100.00
36190;BME280;22232;50.914;13.858;2023-11-21T05:03:57;97194.28;;;6.56;100.00
36190;BME280;22232;50.914;13.858;2023-11-21T05:06:25;97193.84;;;6.59;100.00
36190;BME280;22232;50.914;13.858;2023-11-21T05:08:52;97198.16;;;6.60;100.00
36190;BME280;22232;50.914;13.858;2023-11-21T05:11:27;97202.41;;;6.61;100.00
36190;BME280;22232;50.914;13.858;2023-11-21T05:13:55;97205.69;;;6.57;100.00
36190;BME280;22232;50.914;13.858;2023-11-21T05:16:26;97208.59;;;6.55;100.00
36190;BME280;22232;50.914;13.858;2023-11-21T05:18:57;97207.53;;;6.56;100.00
36190;BME280;22232;50.914;13.858;2023-11-21T05:21:28;97209.19;;;6.57;100.00
36190;BME280;22232;50.914;13.858;2023-11-21T05:23:57;97218.50;;;6.60;100.00
36190;BME280;22232;50.914;13.858;2023-11-21T05:26:24;97212.31;;;6.66;100.00
36190;BME280;22232;50.914;13.858;2023-11-21T05:28:52;97214.16;;;6.65;100.00
36190;BME280;22232;50.914;13.858;2023-11-21T05:31:20;97219.03;;;6.69;100.00
36190;BME280;22232;50.914;13.858;2023-11-21T05:33:47;97217.34;;;6.74;100.00
36190;BME280;22232;50.914;13.858;2023-11-21T05:36:15;97216.09;;;6.77;100.00
36190;BME280;22232;50.914;13.858;2023-11-21T05:38:42;97214.50;;;6.76;100.00
36190;BME280;22232;50.914;13.858;2023-11-21T05:41:10;97223.91;;;6.72;100.00
36190;BME280;22232;50.914;13.858;2023-11-21T05:43:41;97225.53;;;6.73;100.00
36190;BME280;22232;50.914;13.858;2023-11-21T05:46:08;97230.00;;;6.72;100.00
36190;BME280;22232;50.914;13.858;2023-11-21T05:48:36;97228.56;;;6.76;100.00
36190;BME280;22232;50.914;13.858;2023-11-21T05:51:07;97228.91;;;6.80;100.00
36190;BME280;22232;50.914;13.858;2023-11-21T05:53:35;97230.16;;;6.77;100.00
36190;BME280;22232;50.914;13.858;2023-11-21T05:56:03;97232.81;;;6.77;100.00
36190;BME280;22232;50.914;13.858;2023-11-21T05:58:31;97230.97;;;6.78;100.00
36190;BME280;22232;50.914;13.858;2023-11-21T06:00:59;97231.56;;;6.80;100.00
36190;BME280;22232;50.914;13.858;2023-11-21T06:03:26;97228.75;;;6.75;100.00
36190;BME280;22232;50.914;13.858;2023-11-21T06:05:54;97231.41;;;6.75;100.00
36190;BME280;22232;50.914;13.858;2023-11-21T06:08:21;97238.56;;;6.74;100.00
36190;BME280;22232;50.914;13.858;2023-11-21T06:10:49;97236.72;;;6.75;100.00
36190;BME280;22232;50.914;13.858;2023-11-21T06:13:17;97247.53;;;6.73;100.00
36190;BME280;22232;50.914;13.858;2023-11-21T06:15:48;97243.91;;;6.68;100.00
36190;BME280;22232;50.914;13.858;2023-11-21T06:18:15;97244.97;;;6.66;100.00
36190;BME280;22232;50.914;13.858;2023-11-21T06:20:43;97243.47;;;6.71;100.00
36190;BME280;22232;50.914;13.858;2023-11-21T06:23:10;97247.97;;;6.70;100.00
36190;BME280;22232;50.914;13.858;2023-11-21T06:25:38;97257.53;;;6.71;100.00
36190;BME280;22232;50.914;13.858;2023-11-21T06:28:06;97257.38;;;6.66;100.00
36190;BME280;22232;50.914;13.858;2023-11-21T06:30:34;97257.97;;;6.68;100.00
36190;BME280;22232;50.914;13.858;2023-11-21T06:33:01;97260.44;;;6.70;100.00
36190;BME280;22232;50.914;13.858;2023-11-21T06:35:29;97258.22;;;6.66;100.00
36190;BME280;22232;50.914;13.858;2023-11-21T06:38:00;97272.03;;;6.69;100.00
36190;BME280;22232;50.914;13.858;2023-11-21T06:40:27;97264.09;;;6.69;100.00
36190;BME280;22232;50.914;13.858;2023-11-21T06:42:55;97267.94;;;6.73;100.00
36190;BME280;22232;50.914;13.858;2023-11-21T06:45:22;97268.50;;;6.75;100.00
36190;BME280;22232;50.914;13.858;2023-11-21T06:47:50;97267.94;;;6.73;100.00
36190;BME280;22232;50.914;13.858;2023-11-21T06:50:18;97266.47;;;6.77;100.00
36190;BME280;22232;50.914;13.858;2023-11-21T06:52:46;97273.16;;;6.79;100.00
36190;BME280;22232;50.914;13.858;2023-11-21T06:55:14;97268.22;;;6.83;100.00
36190;BME280;22232;50.914;13.858;2023-11-21T06:57:43;97271.47;;;6.85;100.00
36190;BME280;22232;50.914;13.858;2023-11-21T07:00:13;97276.34;;;6.88;100.00
36190;BME280;22232;50.914;13.858;2023-11-21T07:02:42;97270.72;;;6.96;100.00
36190;BME280;22232;50.914;13.858;2023-11-21T07:05:10;97272.13;;;6.99;100.00
36190;BME280;22232;50.914;13.858;2023-11-21T07:07:38;97278.25;;;6.99;100.00
36190;BME280;22232;50.914;13.858;2023-11-21T07:10:06;97279.06;;;7.00;100.00
36190;BME280;22232;50.914;13.858;2023-11-21T07:12:35;97286.81;;;7.01;100.00
36190;BME280;22232;50.914;13.858;2023-11-21T07:15:03;97291.66;;;7.04;100.00
36190;BME280;22232;50.914;13.858;2023-11-21T07:17:33;97287.16;;;7.05;100.00
36190;BME280;22232;50.914;13.858;2023-11-21T07:20:02;97287.75;;;7.07;100.00
36190;BME280;22232;50.914;13.858;2023-11-21T07:22:30;97292.84;;;7.08;100.00
36190;BME280;22232;50.914;13.858;2023-11-21T07:24:58;97288.72;;;7.12;100.00
36190;BME280;22232;50.914;13.858;2023-11-21T07:27:26;97278.91;;;7.13;100.00
36190;BME280;22232;50.914;13.858;2023-11-21T07:29:53;97292.53;;;7.17;100.00
36190;BME280;22232;50.914;13.858;2023-11-21T07:32:21;97291.31;;;7.19;100.00
36190;BME280;22232;50.914;13.858;2023-11-21T07:34:48;97297.84;;;7.17;100.00
36190;BME280;22232;50.914;13.858;2023-11-21T07:37:16;97295.19;;;7.17;100.00
36190;BME280;22232;50.914;13.858;2023-11-21T07:39:43;97300.13;;;7.13;100.00
36190;BME280;22232;50.914;13.858;2023-11-21T07:42:11;97298.06;;;7.15;100.00
36190;BME280;22232;50.914;13.858;2023-11-21T07:44:39;97298.22;;;7.20;100.00
36190;BME280;22232;50.914;13.858;2023-11-21T07:47:06;97307.41;;;7.18;100.00
36190;BME280;22232;50.914;13.858;2023-11-21T07:49:34;97315.59;;;7.16;100.00
36190;BME280;22232;50.914;13.858;2023-11-21T07:52:02;97314.81;;;7.16;100.00
36190;BME280;22232;50.914;13.858;2023-11-21T07:54:29;97317.06;;;7.12;100.00
36190;BME280;22232;50.914;13.858;2023-11-21T07:56:57;97314.84;;;7.09;100.00
36190;BME280;22232;50.914;13.858;2023-11-21T07:59:25;97321.00;;;7.09;100.00
36190;BME280;22232;50.914;13.858;2023-11-21T08:01:52;97312.81;;;7.11;100.00
36190;BME280;22232;50.914;13.858;2023-11-21T08:04:20;97316.50;;;7.10;100.00
36190;BME280;22232;50.914;13.858;2023-11-21T08:06:47;97321.78;;;7.10;100.00
36190;BME280;22232;50.914;13.858;2023-11-21T08:09:15;97319.13;;;7.10;100.00
36190;BME280;22232;50.914;13.858;2023-11-21T08:11:44;97318.91;;;7.11;100.00
36190;BME280;22232;50.914;13.858;2023-11-21T08:14:14;97319.13;;;7.10;100.00
36190;BME280;22232;50.914;13.858;2023-11-21T08:16:42;97318.69;;;7.13;100.00
36190;BME280;22232;50.914;13.858;2023-11-21T08:19:10;97324.13;;;7.18;100.00
36190;BME280;22232;50.914;13.858;2023-11-21T08:21:38;97324.28;;;7.23;100.00
36190;BME280;22232;50.914;13.858;2023-11-21T08:24:07;97328.50;;;7.31;100.00
36190;BME280;22232;50.914;13.858;2023-11-21T08:26:38;97323.41;;;7.29;100.00
36190;BME280;22232;50.914;13.858;2023-11-21T08:29:06;97332.31;;;7.35;100.00
36190;BME280;22232;50.914;13.858;2023-11-21T08:31:34;97321.44;;;7.43;100.00
36190;BME280;22232;50.914;13.858;2023-11-21T08:34:02;97335.13;;;7.40;100.00
36190;BME280;22232;50.914;13.858;2023-11-21T08:36:30;97330.63;;;7.41;100.00
36190;BME280;22232;50.914;13.858;2023-11-21T08:38:59;97329.03;;;7.40;100.00
36190;BME280;22232;50.914;13.858;2023-11-21T08:41:26;97338.34;;;7.42;100.00
36190;BME280;22232;50.914;13.858;2023-11-21T08:43:55;97332.84;;;7.44;100.00
36190;BME280;22232;50.914;13.858;2023-11-21T08:46:23;97336.97;;;7.40;100.00
36190;BME280;22232;50.914;13.858;2023-11-21T08:48:53;97336.53;;;7.43;100.00
36190;BME280;22232;50.914;13.858;2023-11-21T08:51:20;97334.09;;;7.41;100.00
36190;BME280;22232;50.914;13.858;2023-11-21T08:53:48;97339.19;;;7.43;100.00
36190;BME280;22232;50.914;13.858;2023-11-21T08:56:16;97340.00;;;7.43;100.00
36190;BME280;22232;50.914;13.858;2023-11-21T08:58:43;97337.47;;;7.48;100.00
36190;BME280;22232;50.914;13.858;2023-11-21T09:01:11;97343.00;;;7.47;100.00
36190;BME280;22232;50.914;13.858;2023-11-21T09:03:39;97338.22;;;7.37;100.00
36190;BME280;22232;50.914;13.858;2023-11-21T09:06:08;97339.25;;;7.36;100.00
36190;BME280;22232;50.914;13.858;2023-11-21T09:08:39;97340.00;;;7.43;100.00
36190;BME280;22232;50.914;13.858;2023-11-21T09:11:07;97334.59;;;7.50;100.00
36190;BME280;22232;50.914;13.858;2023-11-21T09:13:35;97336.47;;;7.49;100.00
36190;BME280;22232;50.914;13.858;2023-11-21T09:16:03;97345.06;;;7.45;100.00
36190;BME280;22232;50.914;13.858;2023-11-21T09:18:32;97351.41;;;7.44;100.00
36190;BME280;22232;50.914;13.858;2023-11-21T09:20:59;97349.72;;;7.49;100.00
36190;BME280;22232;50.914;13.858;2023-11-21T09:23:27;97361.16;;;7.50;100.00
36190;BME280;22232;50.914;13.858;2023-11-21T09:25:54;97354.66;;;7.46;100.00
36190;BME280;22232;50.914;13.858;2023-11-21T09:28:24;97351.50;;;7.37;100.00
36190;BME280;22232;50.914;13.858;2023-11-21T09:30:53;97352.06;;;7.39;100.00
36190;BME280;22232;50.914;13.858;2023-11-21T09:33:21;97358.13;;;7.46;100.00
36190;BME280;22232;50.914;13.858;2023-11-21T09:35:52;97354.66;;;7.46;100.00
36190;BME280;22232;50.914;13.858;2023-11-21T09:38:20;97364.41;;;7.33;100.00
36190;BME280;22232;50.914;13.858;2023-11-21T09:40:47;97358.84;;;7.35;100.00
36190;BME280;22232;50.914;13.858;2023-11-21T09:43:17;97363.13;;;7.36;100.00
36190;BME280;22232;50.914;13.858;2023-11-21T09:45:47;97367.25;;;7.32;100.00
36190;BME280;22232;50.914;13.858;2023-11-21T09:48:16;97367.34;;;7.25;100.00
36190;BME280;22232;50.914;13.858;2023-11-21T09:50:47;97372.19;;;7.28;100.00
36190;BME280;22232;50.914;13.858;2023-11-21T09:53:21;97373.69;;;7.24;100.00
36190;BME280;22232;50.914;13.858;2023-11-21T09:55:52;97380.59;;;7.25;100.00
36190;BME280;22232;50.914;13.858;2023-11-21T09:58:21;97375.94;;;7.21;100.00
36190;BME280;22232;50.914;13.858;2023-11-21T10:00:56;97381.31;;;7.14;100.00
36190;BME280;22232;50.914;13.858;2023-11-21T10:03:25;97383.34;;;7.12;100.00
36190;BME280;22232;50.914;13.858;2023-11-21T10:05:53;97380.56;;;7.07;100.00
36190;BME280;22232;50.914;13.858;2023-11-21T10:08:24;97389.97;;;7.03;100.00
36190;BME280;22232;50.914;13.858;2023-11-21T10:11:13;97394.03;;;7.05;100.00
36190;BME280;22232;50.914;13.858;2023-11-21T10:13:44;97390.38;;;7.06;100.00
36190;BME280;22232;50.914;13.858;2023-11-21T10:16:15;97388.72;;;7.05;100.00
36190;BME280;22232;50.914;13.858;2023-11-21T10:19:16;97391.06;;;6.95;100.00
36190;BME280;22232;50.914;13.858;2023-11-21T10:21:45;97390.34;;;6.88;100.00
36190;BME280;22232;50.914;13.858;2023-11-21T10:24:13;97395.19;;;6.91;100.00
36190;BME280;22232;50.914;13.858;2023-11-21T10:26:41;97392.97;;;6.88;100.00
36190;BME280;22232;50.914;13.858;2023-11-21T10:29:19;97399.84;;;6.96;100.00
36190;BME280;22232;50.914;13.858;2023-11-21T10:31:50;97400.34;;;6.86;100.00
36190;BME280;22232;50.914;13.858;2023-11-21T10:34:20;97400.41;;;6.79;100.00
36190;BME280;22232;50.914;13.858;2023-11-21T10:36:48;97398.88;;;6.65;100.00
36190;BME280;22232;50.914;13.858;2023-11-21T10:39:19;97408.72;;;6.58;100.00
36190;BME280;22232;50.914;13.858;2023-11-21T10:41:48;97415.28;;;6.49;100.00
36190;BME280;22232;50.914;13.858;2023-11-21T10:44:19;97400.63;;;6.46;100.00
36190;BME280;22232;50.914;13.858;2023-11-21T10:46:56;97415.31;;;6.42;100.00
36190;BME280;22232;50.914;13.858;2023-11-21T10:49:26;97411.84;;;6.10;100.00
36190;BME280;22232;50.914;13.858;2023-11-21T10:51:54;97419.94;;;6.22;100.00
36190;BME280;22232;50.914;13.858;2023-11-21T10:54:24;97416.16;;;6.04;100.00
36190;BME280;22232;50.914;13.858;2023-11-21T10:56:59;97425.69;;;6.05;100.00
36190;BME280;22232;50.914;13.858;2023-11-21T10:59:31;97423.31;;;5.97;100.00
36190;BME280;22232;50.914;13.858;2023-11-21T11:02:01;97430.25;;;5.78;100.00
36190;BME280;22232;50.914;13.858;2023-11-21T11:04:31;97436.38;;;5.79;100.00
36190;BME280;22232;50.914;13.858;2023-11-21T11:07:02;97435.81;;;5.63;100.00
36190;BME280;22232;50.914;13.858;2023-11-21T11:09:32;97441.94;;;5.57;100.00
36190;BME280;22232;50.914;13.858;2023-11-21T11:12:03;97448.06;;;5.51;100.00
36190;BME280;22232;50.914;13.858;2023-11-21T11:14:34;97443.00;;;5.43;100.00
36190;BME280;22232;50.914;13.858;2023-11-21T11:17:02;97459.31;;;5.26;100.00
36190;BME280;22232;50.914;13.858;2023-11-21T11:19:31;97463.16;;;5.24;100.00
36190;BME280;22232;50.914;13.858;2023-11-21T11:22:14;97460.09;;;5.20;100.00
36190;BME280;22232;50.914;13.858;2023-11-21T11:25:09;97460.72;;;5.16;100.00
36190;BME280;22232;50.914;13.858;2023-11-21T11:28:14;97469.25;;;5.11;100.00
36190;BME280;22232;50.914;13.858;2023-11-21T11:36:17;97478.00;;;4.98;100.00
36190;BME280;22232;50.914;13.858;2023-11-21T11:38:48;97479.22;;;4.89;100.00
36190;BME280;22232;50.914;13.858;2023-11-21T11:41:28;97482.28;;;4.99;100.00
36190;BME280;22232;50.914;13.858;2023-11-21T11:44:02;97482.88;;;4.88;100.00
36190;BME280;22232;50.914;13.858;2023-11-21T11:46:42;97484.50;;;4.82;100.00
36190;BME280;22232;50.914;13.858;2023-11-21T11:49:10;97496.47;;;4.65;100.00
36190;BME280;22232;50.914;13.858;2023-11-21T11:51:38;97496.03;;;4.55;100.00
36190;BME280;22232;50.914;13.858;2023-11-21T11:54:06;97490.75;;;4.55;100.00
36190;BME280;22232;50.914;13.858;2023-11-21T11:56:34;97493.97;;;4.44;100.00
36190;BME280;22232;50.914;13.858;2023-11-21T11:59:04;97502.34;;;4.54;100.00
36190;BME280;22232;50.914;13.858;2023-11-21T12:01:33;97510.06;;;4.55;100.00
36190;BME280;22232;50.914;13.858;2023-11-21T12:06:52;97507.38;;;4.42;100.00
36190;BME280;22232;50.914;13.858;2023-11-21T12:09:21;97507.16;;;4.44;100.00
36190;BME280;22232;50.914;13.858;2023-11-21T12:11:50;97507.78;;;4.46;100.00
36190;BME280;22232;50.914;13.858;2023-11-21T12:14:17;97505.97;;;4.46;100.00
36190;BME280;22232;50.914;13.858;2023-11-21T12:16:45;97502.94;;;4.56;100.00
36190;BME280;22232;50.914;13.858;2023-11-21T12:19:13;97508.41;;;4.48;100.00
36190;BME280;22232;50.914;13.858;2023-11-21T12:21:41;97515.34;;;4.55;100.00
36190;BME280;22232;50.914;13.858;2023-11-21T12:24:09;97517.41;;;4.67;100.00
36190;BME280;22232;50.914;13.858;2023-11-21T12:26:36;97524.06;;;4.56;100.00
36190;BME280;22232;50.914;13.858;2023-11-21T12:29:04;97530.38;;;4.55;100.00
36190;BME280;22232;50.914;13.858;2023-11-21T12:31:35;97531.56;;;4.46;100.00
36190;BME280;22232;50.914;13.858;2023-11-21T12:34:04;97536.84;;;4.46;100.00
36190;BME280;22232;50.914;13.858;2023-11-21T12:36:34;97535.81;;;4.40;100.00
36190;BME280;22232;50.914;13.858;2023-11-21T12:39:02;97553.22;;;4.28;100.00
36190;BME280;22232;50.914;13.858;2023-11-21T12:41:30;97544.47;;;4.21;100.00
36190;BME280;22232;50.914;13.858;2023-11-21T12:43:58;97552.19;;;4.22;100.00
36190;BME280;22232;50.914;13.858;2023-11-21T12:46:26;97552.38;;;4.21;100.00
36190;BME280;22232;50.914;13.858;2023-11-21T12:48:57;97556.63;;;4.15;100.00
36190;BME280;22232;50.914;13.858;2023-11-21T12:51:25;97553.97;;;4.08;100.00
36190;BME280;22232;50.914;13.858;2023-11-21T12:53:53;97558.59;;;4.06;100.00
36190;BME280;22232;50.914;13.858;2023-11-21T12:56:21;97561.84;;;4.02;100.00
36190;BME280;22232;50.914;13.858;2023-11-21T12:58:54;97574.03;;;4.03;100.00
36190;BME280;22232;50.914;13.858;2023-11-21T13:01:25;97565.06;;;3.97;100.00
36190;BME280;22232;50.914;13.858;2023-11-21T13:03:57;97573.22;;;4.02;100.00
36190;BME280;22232;50.914;13.858;2023-11-21T13:06:31;97581.97;;;4.09;100.00